sensor_id;sensor_type;location;lat;lon;timestamp;P1;P2;P0
80946;PMS5003;70403;50.226;8.564;2023-07-29T00:01:45;8.000000;8.000000;
80946;PMS5003;70403;50.226;8.564;2023-07-29T00:06:45;7.000000;7.000000;
80946;PMS5003;70403;50.226;8.564;2023-07-29T00:11:45;10.000000;10.000000;
80946;PMS5003;70403;50.226;8.564;2023-07-29T00:16:45;8.000000;8.000000;
80946;PMS5003;70403;50.226;8.564;2023-07-29T00:21:45;6.000000;6.000000;
80946;PMS5003;70403;50.226;8.564;2023-07-29T00:26:45;8.000000;7.000000;
80946;PMS5003;70403;50.226;8.564;2023-07-29T00:31:45;7.000000;7.000000;
80946;PMS5003;70403;50.226;8.564;2023-07-29T00:36:46;8.000000;8.000000;
80946;PMS5003;70403;50.226;8.564;2023-07-29T00:41:45;8.000000;8.000000;
80946;PMS5003;70403;50.226;8.564;2023-07-29T00:46:46;8.000000;8.000000;
80946;PMS5003;70403;50.226;8.564;2023-07-29T00:51:46;10.000000;10.000000;
80946;PMS5003;70403;50.226;8.564;2023-07-29T00:56:45;11.000000;11.000000;
80946;PMS5003;70403;50.226;8.564;2023-07-29T01:01:45;10.000000;10.000000;
80946;PMS5003;70403;50.226;8.564;2023-07-29T01:06:48;14.000000;14.000000;
80946;PMS5003;70403;50.226;8.564;2023-07-29T01:15:31;15.000000;14.000000;
80946;PMS5003;70403;50.226;8.564;2023-07-29T01:20:31;9.000000;9.000000;
80946;PMS5003;70403;50.226;8.564;2023-07-29T01:25:30;18.000000;18.000000;
80946;PMS5003;70403;50.226;8.564;2023-07-29T01:30:31;15.000000;15.000000;
80946;PMS5003;70403;50.226;8.564;2023-07-29T01:35:32;14.000000;14.000000;
80946;PMS5003;70403;50.226;8.564;2023-07-29T01:40:30;11.000000;11.000000;
80946;PMS5003;70403;50.226;8.564;2023-07-29T01:45:30;13.000000;12.000000;
80946;PMS5003;70403;50.226;8.564;2023-07-29T01:50:30;14.000000;14.000000;
80946;PMS5003;70403;50.226;8.564;2023-07-29T01:55:30;13.000000;13.000000;
80946;PMS5003;70403;50.226;8.564;2023-07-29T02:00:30;13.000000;11.000000;
80946;PMS5003;70403;50.226;8.564;2023-07-29T02:05:30;17.000000;15.000000;
80946;PMS5003;70403;50.226;8.564;2023-07-29T02:10:30;14.000000;14.000000;
80946;PMS5003;70403;50.226;8.564;2023-07-29T02:15:30;18.000000;17.000000;
80946;PMS5003;70403;50.226;8.564;2023-07-29T02:20:30;22.000000;20.000000;
80946;PMS5003;70403;50.226;8.564;2023-07-29T02:25:30;23.000000;21.000000;
80946;PMS5003;70403;50.226;8.564;2023-07-29T02:30:30;20.000000;19.000000;
80946;PMS5003;70403;50.226;8.564;2023-07-29T02:35:30;22.000000;21.000000;
80946;PMS5003;70403;50.226;8.564;2023-07-29T02:40:30;23.000000;21.000000;
80946;PMS5003;70403;50.226;8.564;2023-07-29T02:45:30;22.000000;21.000000;
80946;PMS5003;70403;50.226;8.564;2023-07-29T02:50:30;22.000000;22.000000;
80946;PMS5003;70403;50.226;8.564;2023-07-29T02:55:30;21.000000;19.000000;
80946;PMS5003;70403;50.226;8.564;2023-07-29T03:00:32;24.000000;21.000000;
80946;PMS5003;70403;50.226;8.564;2023-07-29T03:05:30;19.000000;19.000000;
80946;PMS5003;70403;50.226;8.564;2023-07-29T03:10:30;18.000000;18.000000;
80946;PMS5003;70403;50.226;8.564;2023-07-29T03:15:31;10.000000;10.000000;
80946;PMS5003;70403;50.226;8.564;2023-07-29T03:20:30;10.000000;10.000000;
80946;PMS5003;70403;50.226;8.564;2023-07-29T03:25:30;14.000000;14.000000;
80946;PMS5003;70403;50.226;8.564;2023-07-29T03:30:30;12.000000;12.000000;
80946;PMS5003;70403;50.226;8.564;2023-07-29T03:35:30;15.000000;14.000000;
80946;PMS5003;70403;50.226;8.564;2023-07-29T03:40:30;14.000000;11.000000;
80946;PMS5003;70403;50.226;8.564;2023-07-29T03:45:30;12.000000;12.000000;
80946;PMS5003;70403;50.226;8.564;2023-07-29T03:50:30;10.000000;10.000000;
80946;PMS5003;70403;50.226;8.564;2023-07-29T03:55:30;12.000000;10.000000;
80946;PMS5003;70403;50.226;8.564;2023-07-29T04:00:30;12.000000;12.000000;
80946;PMS5003;70403;50.226;8.564;2023-07-29T04:05:30;16.000000;16.000000;
80946;PMS5003;70403;50.226;8.564;2023-07-29T04:10:30;16.000000;16.000000;
80946;PMS5003;70403;50.226;8.564;2023-07-29T04:15:30;19.000000;18.000000;
80946;PMS5003;70403;50.226;8.564;2023-07-29T04:20:30;19.000000;18.000000;
80946;PMS5003;70403;50.226;8.564;2023-07-29T04:25:30;14.000000;14.000000;
80946;PMS5003;70403;50.226;8.564;2023-07-29T04:30:30;17.000000;17.000000;
80946;PMS5003;70403;50.226;8.564;2023-07-29T04:35:30;11.000000;10.000000;
80946;PMS5003;70403;50.226;8.564;2023-07-29T04:40:32;8.000000;8.000000;
80946;PMS5003;70403;50.226;8.564;2023-07-29T04:45:30;14.000000;14.000000;
80946;PMS5003;70403;50.226;8.564;2023-07-29T04:50:30;14.000000;14.000000;
80946;PMS5003;70403;50.226;8.564;2023-07-29T04:55:30;13.000000;11.000000;
80946;PMS5003;70403;50.226;8.564;2023-07-29T05:00:30;10.000000;10.000000;
80946;PMS5003;70403;50.226;8.564;2023-07-29T05:05:30;15.000000;15.000000;
80946;PMS5003;70403;50.226;8.564;2023-07-29T05:10:30;16.000000;15.000000;
80946;PMS5003;70403;50.226;8.564;2023-07-29T05:15:30;12.000000;12.000000;
80946;PMS5003;70403;50.226;8.564;2023-07-29T05:20:30;11.000000;11.000000;
80946;PMS5003;70403;50.226;8.564;2023-07-29T05:25:30;12.000000;12.000000;
80946;PMS5003;70403;50.226;8.564;2023-07-29T05:30:32;12.000000;12.000000;
80946;PMS5003;70403;50.226;8.564;2023-07-29T05:35:30;12.000000;11.000000;
80946;PMS5003;70403;50.226;8.564;2023-07-29T05:40:30;11.000000;11.000000;
80946;PMS5003;70403;50.226;8.564;2023-07-29T05:45:30;11.000000;11.000000;
80946;PMS5003;70403;50.226;8.564;2023-07-29T05:50:30;9.000000;9.000000;
80946;PMS5003;70403;50.226;8.564;2023-07-29T05:55:30;12.000000;12.000000;
80946;PMS5003;70403;50.226;8.564;2023-07-29T06:00:30;12.000000;11.000000;
80946;PMS5003;70403;50.226;8.564;2023-07-29T06:05:30;11.000000;11.000000;
80946;PMS5003;70403;50.226;8.564;2023-07-29T06:10:30;8.000000;8.000000;
80946;PMS5003;70403;50.226;8.564;2023-07-29T06:15:30;12.000000;12.000000;
80946;PMS5003;70403;50.226;8.564;2023-07-29T06:20:30;14.000000;13.000000;
80946;PMS5003;70403;50.226;8.564;2023-07-29T06:25:30;10.000000;10.000000;
80946;PMS5003;70403;50.226;8.564;2023-07-29T06:30:30;9.000000;9.000000;
80946;PMS5003;70403;50.226;8.564;2023-07-29T06:35:30;9.000000;9.000000;
80946;PMS5003;70403;50.226;8.564;2023-07-29T06:40:30;13.000000;13.000000;
80946;PMS5003;70403;50.226;8.564;2023-07-29T06:45:31;14.000000;14.000000;
80946;PMS5003;70403;50.226;8.564;2023-07-29T06:50:30;16.000000;16.000000;
80946;PMS5003;70403;50.226;8.564;2023-07-29T06:55:30;10.000000;10.000000;
80946;PMS5003;70403;50.226;8.564;2023-07-29T07:00:30;10.000000;10.000000;
80946;PMS5003;70403;50.226;8.564;2023-07-29T07:05:30;11.000000;11.000000;
80946;PMS5003;70403;50.226;8.564;2023-07-29T07:10:30;12.000000;12.000000;
80946;PMS5003;70403;50.226;8.564;2023-07-29T07:15:30;11.000000;11.000000;
80946;PMS5003;70403;50.226;8.564;2023-07-29T07:20:30;11.000000;11.000000;
80946;PMS5003;70403;50.226;8.564;2023-07-29T07:25:30;10.000000;9.000000;
80946;PMS5003;70403;50.226;8.564;2023-07-29T07:30:30;9.000000;9.000000;
80946;PMS5003;70403;50.226;8.564;2023-07-29T07:35:30;9.000000;9.000000;
80946;PMS5003;70403;50.226;8.564;2023-07-29T07:40:30;9.000000;9.000000;
80946;PMS5003;70403;50.226;8.564;2023-07-29T07:45:31;10.000000;9.000000;
80946;PMS5003;70403;50.226;8.564;2023-07-29T07:50:32;8.000000;7.000000;
80946;PMS5003;70403;50.226;8.564;2023-07-29T07:55:31;6.000000;6.000000;
80946;PMS5003;70403;50.226;8.564;2023-07-29T08:03:30;6.000000;6.000000;
80946;PMS5003;70403;50.226;8.564;2023-07-29T08:38:21;6.000000;6.000000;
80946;PMS5003;70403;50.226;8.564;2023-07-29T09:39:01;5.000000;5.000000;
80946;PMS5003;70403;50.226;8.564;2023-07-29T11:18:12;4.000000;4.000000;
80946;PMS5003;70403;50.226;8.564;2023-07-29T11:23:12;4.000000;4.000000;
80946;PMS5003;70403;50.226;8.564;2023-07-29T11:28:12;4.000000;4.000000;
80946;PMS5003;70403;50.226;8.564;2023-07-29T11:33:16;4.000000;4.000000;
80946;PMS5003;70403;50.226;8.564;2023-07-29T11:45:50;3.000000;3.000000;
80946;PMS5003;70403;50.226;8.564;2023-07-29T11:54:54;4.000000;4.000000;
80946;PMS5003;70403;50.226;8.564;2023-07-29T11:59:54;3.000000;3.000000;
80946;PMS5003;70403;50.226;8.564;2023-07-29T12:04:54;3.000000;3.000000;
80946;PMS5003;70403;50.226;8.564;2023-07-29T12:09:53;4.000000;4.000000;
80946;PMS5003;70403;50.226;8.564;2023-07-29T12:14:54;4.000000;4.000000;
80946;PMS5003;70403;50.226;8.564;2023-07-29T12:19:54;3.000000;2.000000;
80946;PMS5003;70403;50.226;8.564;2023-07-29T12:24:53;4.000000;4.000000;
80946;PMS5003;70403;50.226;8.564;2023-07-29T12:29:53;3.000000;3.000000;
80946;PMS5003;70403;50.226;8.564;2023-07-29T12:34:54;3.000000;3.000000;
80946;PMS5003;70403;50.226;8.564;2023-07-29T12:39:53;4.000000;4.000000;
80946;PMS5003;70403;50.226;8.564;2023-07-29T12:44:53;4.000000;4.000000;
80946;PMS5003;70403;50.226;8.564;2023-07-29T12:49:53;5.000000;5.000000;
80946;PMS5003;70403;50.226;8.564;2023-07-29T12:54:53;5.000000;5.000000;
80946;PMS5003;70403;50.226;8.564;2023-07-29T12:59:53;3.000000;3.000000;
80946;PMS5003;70403;50.226;8.564;2023-07-29T13:04:53;5.000000;5.000000;
80946;PMS5003;70403;50.226;8.564;2023-07-29T13:09:53;4.000000;4.000000;
80946;PMS5003;70403;50.226;8.564;2023-07-29T13:14:53;3.000000;3.000000;
80946;PMS5003;70403;50.226;8.564;2023-07-29T13:19:53;3.000000;3.000000;
80946;PMS5003;70403;50.226;8.564;2023-07-29T13:24:53;4.000000;4.000000;
80946;PMS5003;70403;50.226;8.564;2023-07-29T13:29:53;5.000000;5.000000;
80946;PMS5003;70403;50.226;8.564;2023-07-29T13:34:53;5.000000;5.000000;
80946;PMS5003;70403;50.226;8.564;2023-07-29T13:39:53;3.000000;3.000000;
80946;PMS5003;70403;50.226;8.564;2023-07-29T13:44:54;4.000000;4.000000;
80946;PMS5003;70403;50.226;8.564;2023-07-29T13:49:53;3.000000;3.000000;
80946;PMS5003;70403;50.226;8.564;2023-07-29T13:54:53;3.000000;3.000000;
80946;PMS5003;70403;50.226;8.564;2023-07-29T13:59:53;4.000000;4.000000;
80946;PMS5003;70403;50.226;8.564;2023-07-29T14:04:53;2.000000;2.000000;
80946;PMS5003;70403;50.226;8.564;2023-07-29T14:09:53;2.000000;2.000000;
80946;PMS5003;70403;50.226;8.564;2023-07-29T14:14:53;2.000000;2.000000;
80946;PMS5003;70403;50.226;8.564;2023-07-29T14:19:53;2.000000;2.000000;
80946;PMS5003;70403;50.226;8.564;2023-07-29T14:24:53;2.000000;2.000000;
80946;PMS5003;70403;50.226;8.564;2023-07-29T14:29:53;3.000000;3.000000;
80946;PMS5003;70403;50.226;8.564;2023-07-29T14:34:53;2.000000;2.000000;
80946;PMS5003;70403;50.226;8.564;2023-07-29T14:39:53;3.000000;3.000000;
80946;PMS5003;70403;50.226;8.564;2023-07-29T14:44:54;2.000000;2.000000;
80946;PMS5003;70403;50.226;8.564;2023-07-29T14:49:53;2.000000;2.000000;
80946;PMS5003;70403;50.226;8.564;2023-07-29T14:54:54;2.000000;2.000000;
80946;PMS5003;70403;50.226;8.564;2023-07-29T14:59:54;3.000000;3.000000;
80946;PMS5003;70403;50.226;8.564;2023-07-29T15:04:53;2.000000;2.000000;
80946;PMS5003;70403;50.226;8.564;2023-07-29T15:09:54;3.000000;3.000000;
80946;PMS5003;70403;50.226;8.564;2023-07-29T15:14:53;3.000000;3.000000;
80946;PMS5003;70403;50.226;8.564;2023-07-29T15:19:53;2.000000;2.000000;
80946;PMS5003;70403;50.226;8.564;2023-07-29T15:24:53;2.000000;2.000000;
80946;PMS5003;70403;50.226;8.564;2023-07-29T15:29:53;3.000000;3.000000;
80946;PMS5003;70403;50.226;8.564;2023-07-29T15:34:53;4.000000;4.000000;
80946;PMS5003;70403;50.226;8.564;2023-07-29T15:39:53;3.000000;3.000000;
80946;PMS5003;70403;50.226;8.564;2023-07-29T15:44:53;2.000000;2.000000;
80946;PMS5003;70403;50.226;8.564;2023-07-29T15:49:53;2.000000;2.000000;
80946;PMS5003;70403;50.226;8.564;2023-07-29T15:54:54;2.000000;2.000000;
80946;PMS5003;70403;50.226;8.564;2023-07-29T15:59:53;2.000000;2.000000;
80946;PMS5003;70403;50.226;8.564;2023-07-29T16:04:53;2.000000;2.000000;
80946;PMS5003;70403;50.226;8.564;2023-07-29T16:09:53;3.000000;3.000000;
80946;PMS5003;70403;50.226;8.564;2023-07-29T16:14:53;3.000000;3.000000;
80946;PMS5003;70403;50.226;8.564;2023-07-29T16:19:54;3.000000;3.000000;
80946;PMS5003;70403;50.226;8.564;2023-07-29T16:24:53;6.000000;6.000000;
80946;PMS5003;70403;50.226;8.564;2023-07-29T16:29:53;2.000000;2.000000;
80946;PMS5003;70403;50.226;8.564;2023-07-29T16:34:54;3.000000;3.000000;
80946;PMS5003;70403;50.226;8.564;2023-07-29T16:39:53;4.000000;4.000000;
80946;PMS5003;70403;50.226;8.564;2023-07-29T16:44:53;4.000000;4.000000;
80946;PMS5003;70403;50.226;8.564;2023-07-29T16:49:53;4.000000;4.000000;
80946;PMS5003;70403;50.226;8.564;2023-07-29T16:54:53;4.000000;4.000000;
80946;PMS5003;70403;50.226;8.564;2023-07-29T16:59:53;3.000000;3.000000;
80946;PMS5003;70403;50.226;8.564;2023-07-29T17:04:54;4.000000;4.000000;
80946;PMS5003;70403;50.226;8.564;2023-07-29T17:09:53;3.000000;3.000000;
80946;PMS5003;70403;50.226;8.564;2023-07-29T17:14:53;4.000000;4.000000;
80946;PMS5003;70403;50.226;8.564;2023-07-29T17:19:54;2.000000;2.000000;
80946;PMS5003;70403;50.226;8.564;2023-07-29T17:24:54;5.000000;5.000000;
80946;PMS5003;70403;50.226;8.564;2023-07-29T17:29:54;3.000000;3.000000;
80946;PMS5003;70403;50.226;8.564;2023-07-29T17:34:53;2.000000;2.000000;
80946;PMS5003;70403;50.226;8.564;2023-07-29T17:39:56;5.000000;5.000000;
80946;PMS5003;70403;50.226;8.564;2023-07-29T17:44:53;3.000000;3.000000;
80946;PMS5003;70403;50.226;8.564;2023-07-29T17:49:53;4.000000;4.000000;
80946;PMS5003;70403;50.226;8.564;2023-07-29T17:54:53;2.000000;2.000000;
80946;PMS5003;70403;50.226;8.564;2023-07-29T17:59:53;3.000000;3.000000;
80946;PMS5003;70403;50.226;8.564;2023-07-29T18:04:55;2.000000;2.000000;
80946;PMS5003;70403;50.226;8.564;2023-07-29T18:09:53;3.000000;3.000000;
80946;PMS5003;70403;50.226;8.564;2023-07-29T18:14:54;4.000000;4.000000;
80946;PMS5003;70403;50.226;8.564;2023-07-29T18:19:53;3.000000;3.000000;
80946;PMS5003;70403;50.226;8.564;2023-07-29T18:24:54;4.000000;4.000000;
80946;PMS5003;70403;50.226;8.564;2023-07-29T18:29:54;5.000000;5.000000;
80946;PMS5003;70403;50.226;8.564;2023-07-29T18:34:54;5.000000;5.000000;
80946;PMS5003;70403;50.226;8.564;2023-07-29T18:39:53;3.000000;3.000000;
80946;PMS5003;70403;50.226;8.564;2023-07-29T18:49:35;4.000000;4.000000;
80946;PMS5003;70403;50.226;8.564;2023-07-29T18:54:35;3.000000;3.000000;
80946;PMS5003;70403;50.226;8.564;2023-07-29T18:59:35;4.000000;4.000000;
80946;PMS5003;70403;50.226;8.564;2023-07-29T19:04:35;4.000000;4.000000;
80946;PMS5003;70403;50.226;8.564;2023-07-29T19:09:35;4.000000;4.000000;
80946;PMS5003;70403;50.226;8.564;2023-07-29T19:14:35;4.000000;4.000000;
80946;PMS5003;70403;50.226;8.564;2023-07-29T19:19:35;4.000000;4.000000;
80946;PMS5003;70403;50.226;8.564;2023-07-29T19:24:35;3.000000;3.000000;
80946;PMS5003;70403;50.226;8.564;2023-07-29T19:29:36;5.000000;5.000000;
80946;PMS5003;70403;50.226;8.564;2023-07-29T19:34:35;4.000000;4.000000;
80946;PMS5003;70403;50.226;8.564;2023-07-29T19:39:35;5.000000;5.000000;
80946;PMS5003;70403;50.226;8.564;2023-07-29T19:44:36;4.000000;4.000000;
80946;PMS5003;70403;50.226;8.564;2023-07-29T19:49:36;4.000000;4.000000;
80946;PMS5003;70403;50.226;8.564;2023-07-29T19:54:35;5.000000;4.000000;
80946;PMS5003;70403;50.226;8.564;2023-07-29T19:59:38;3.000000;3.000000;
80946;PMS5003;70403;50.226;8.564;2023-07-29T20:04:35;3.000000;3.000000;
80946;PMS5003;70403;50.226;8.564;2023-07-29T20:09:35;4.000000;4.000000;
80946;PMS5003;70403;50.226;8.564;2023-07-29T20:14:37;4.000000;4.000000;
80946;PMS5003;70403;50.226;8.564;2023-07-29T20:19:35;4.000000;4.000000;
80946;PMS5003;70403;50.226;8.564;2023-07-29T20:24:35;4.000000;4.000000;
80946;PMS5003;70403;50.226;8.564;2023-07-29T20:29:35;4.000000;4.000000;
80946;PMS5003;70403;50.226;8.564;2023-07-29T20:34:35;5.000000;5.000000;
80946;PMS5003;70403;50.226;8.564;2023-07-29T20:39:35;5.000000;5.000000;
80946;PMS5003;70403;50.226;8.564;2023-07-29T20:44:35;4.000000;4.000000;
80946;PMS5003;70403;50.226;8.564;2023-07-29T20:49:35;3.000000;3.000000;
80946;PMS5003;70403;50.226;8.564;2023-07-29T20:54:35;5.000000;4.000000;
80946;PMS5003;70403;50.226;8.564;2023-07-29T20:59:35;4.000000;4.000000;
80946;PMS5003;70403;50.226;8.564;2023-07-29T21:04:36;3.000000;3.000000;
80946;PMS5003;70403;50.226;8.564;2023-07-29T21:09:35;4.000000;4.000000;
80946;PMS5003;70403;50.226;8.564;2023-07-29T21:14:36;4.000000;4.000000;
80946;PMS5003;70403;50.226;8.564;2023-07-29T21:19:35;5.000000;4.000000;
80946;PMS5003;70403;50.226;8.564;2023-07-29T21:24:35;3.000000;3.000000;
80946;PMS5003;70403;50.226;8.564;2023-07-29T21:29:35;4.000000;4.000000;
80946;PMS5003;70403;50.226;8.564;2023-07-29T21:34:35;4.000000;4.000000;
80946;PMS5003;70403;50.226;8.564;2023-07-29T21:39:35;3.000000;3.000000;
80946;PMS5003;70403;50.226;8.564;2023-07-29T21:44:35;2.000000;2.000000;
80946;PMS5003;70403;50.226;8.564;2023-07-29T21:49:35;3.000000;3.000000;
80946;PMS5003;70403;50.226;8.564;2023-07-29T21:54:35;3.000000;3.000000;
80946;PMS5003;70403;50.226;8.564;2023-07-29T21:59:35;3.000000;3.000000;
80946;PMS5003;70403;50.226;8.564;2023-07-29T22:04:35;3.000000;3.000000;
80946;PMS5003;70403;50.226;8.564;2023-07-29T22:09:35;3.000000;3.000000;
80946;PMS5003;70403;50.226;8.564;2023-07-29T22:14:35;2.000000;2.000000;
80946;PMS5003;70403;50.226;8.564;2023-07-29T22:19:35;3.000000;3.000000;
80946;PMS5003;70403;50.226;8.564;2023-07-29T22:24:35;3.000000;3.000000;
80946;PMS5003;70403;50.226;8.564;2023-07-29T22:29:35;3.000000;3.000000;
80946;PMS5003;70403;50.226;8.564;2023-07-29T22:34:35;2.000000;2.000000;
80946;PMS5003;70403;50.226;8.564;2023-07-29T22:39:35;3.000000;3.000000;
80946;PMS5003;70403;50.226;8.564;2023-07-29T22:44:35;4.000000;4.000000;
80946;PMS5003;70403;50.226;8.564;2023-07-29T22:49:35;3.000000;3.000000;
80946;PMS5003;70403;50.226;8.564;2023-07-29T22:54:35;3.000000;3.000000;
80946;PMS5003;70403;50.226;8.564;2023-07-29T22:59:35;2.000000;2.000000;
80946;PMS5003;70403;50.226;8.564;2023-07-29T23:04:35;4.000000;3.000000;
80946;PMS5003;70403;50.226;8.564;2023-07-29T23:09:35;3.000000;3.000000;
80946;PMS5003;70403;50.226;8.564;2023-07-29T23:14:36;3.000000;3.000000;
80946;PMS5003;70403;50.226;8.564;2023-07-29T23:19:35;2.000000;2.000000;
80946;PMS5003;70403;50.226;8.564;2023-07-29T23:24:35;3.000000;3.000000;
80946;PMS5003;70403;50.226;8.564;2023-07-29T23:29:35;3.000000;3.000000;
80946;PMS5003;70403;50.226;8.564;2023-07-29T23:34:35;3.000000;3.000000;
80946;PMS5003;70403;50.226;8.564;2023-07-29T23:39:35;4.000000;4.000000;
80946;PMS5003;70403;50.226;8.564;2023-07-29T23:44:35;3.000000;3.000000;
80946;PMS5003;70403;50.226;8.564;2023-07-29T23:49:35;3.000000;3.000000;
80946;PMS5003;70403;50.226;8.564;2023-07-29T23:54:35;3.000000;3.000000;
80946;PMS5003;70403;50.226;8.564;2023-07-29T23:59:35;4.000000;4.000000;
